Time;durP1;ratioP1;P1;durP2;ratioP2;P2;SDS_P1;SDS_P2;PMS_P1;PMS_P2;Temp;Humidity;BMP_temperature;BMP_pressure;BME280_temperature;BME280_humidity;BME280_pressure;Samples;Min_cycle;Max_cycle;Signal;HPM_P1;HPM_P2
2022/07/14 00:00:46;;;;;;;1.67;1.58;;;24.00;99.90;;;;;;5086787;28;20216;-76
2022/07/14 00:03:13;;;;;;;1.30;1.20;;;24.00;99.90;;;;;;5089235;28;20282;-76
2022/07/14 00:05:41;;;;;;;1.60;1.50;;;23.90;99.90;;;;;;5084407;28;20209;-76
2022/07/14 00:08:08;;;;;;;1.60;1.50;;;23.90;99.90;;;;;;5088198;28;20213;-75
2022/07/14 00:10:36;;;;;;;1.70;1.60;;;23.90;99.90;;;;;;5082509;28;20202;-77
2022/07/14 00:13:03;;;;;;;1.50;1.40;;;23.90;99.90;;;;;;5092397;28;20221;-76
2022/07/14 00:15:31;;;;;;;1.73;1.63;;;23.90;99.90;;;;;;5087147;28;20236;-77
2022/07/14 00:17:59;;;;;;;1.50;1.40;;;23.90;99.90;;;;;;5087369;28;20213;-76
2022/07/14 00:20:27;;;;;;;1.58;1.48;;;23.80;99.90;;;;;;5083724;28;20307;-76
2022/07/14 00:22:56;;;;;;;2.10;1.50;;;23.90;99.90;;;;;;5085042;28;20227;-76
2022/07/14 00:25:24;;;;;;;1.60;1.50;;;23.90;99.90;;;;;;5089919;28;20315;-76
2022/07/14 00:27:51;;;;;;;1.50;1.40;;;23.80;99.90;;;;;;5083895;28;20400;-77
2022/07/14 00:30:19;;;;;;;1.20;1.20;;;23.70;99.90;;;;;;5098948;28;20200;-77
2022/07/14 00:32:47;;;;;;;2.10;1.85;;;23.70;99.90;;;;;;5097473;28;20245;-78
2022/07/14 00:35:14;;;;;;;1.48;1.38;;;23.70;99.90;;;;;;5101594;28;20228;-78
2022/07/14 00:37:42;;;;;;;1.92;1.48;;;23.70;99.90;;;;;;5093810;28;20220;-78
2022/07/14 00:40:11;;;;;;;1.73;1.63;;;23.70;99.90;;;;;;5102568;28;20221;-78
2022/07/14 00:42:40;;;;;;;1.40;1.30;;;23.70;99.90;;;;;;5107968;28;20269;-78
2022/07/14 00:45:11;;;;;;;1.60;1.50;;;23.70;99.90;;;;;;5100188;28;20206;-76
2022/07/14 00:47:39;;;;;;;1.50;1.40;;;23.80;99.90;;;;;;5085138;28;20742;-78
2022/07/14 00:50:08;;;;;;;3.25;1.90;;;23.80;99.90;;;;;;5099711;28;20197;-77
2022/07/14 00:52:36;;;;;;;1.70;1.60;;;23.80;99.90;;;;;;5101887;28;20244;-78
2022/07/14 00:55:04;;;;;;;1.70;1.60;;;23.80;99.90;;;;;;5098861;28;20221;-77
2022/07/14 00:57:32;;;;;;;2.10;1.55;;;23.80;99.90;;;;;;5101409;28;20227;-76
2022/07/14 00:59:59;;;;;;;1.83;1.73;;;23.70;99.90;;;;;;5094168;28;20210;-77
2022/07/14 01:02:27;;;;;;;1.70;1.60;;;23.60;99.90;;;;;;5096647;28;20213;-78
2022/07/14 01:04:54;;;;;;;1.73;1.40;;;23.60;99.90;;;;;;5091669;28;20214;-77
2022/07/14 01:07:21;;;;;;;1.80;1.70;;;23.60;99.90;;;;;;5100807;28;20228;-78
2022/07/14 01:09:48;;;;;;;1.70;1.60;;;23.60;99.90;;;;;;5099700;28;20192;-77
2022/07/14 01:12:15;;;;;;;1.60;1.50;;;23.70;99.90;;;;;;5103163;28;20223;-77
2022/07/14 01:14:44;;;;;;;1.80;1.70;;;23.70;99.90;;;;;;5101897;28;20224;-78
2022/07/14 01:17:12;;;;;;;3.47;1.88;;;23.70;99.90;;;;;;5094785;28;20711;-78
2022/07/14 01:19:39;;;;;;;1.90;1.80;;;23.70;99.90;;;;;;5085263;28;20201;-76
2022/07/14 01:22:08;;;;;;;1.77;1.67;;;23.70;99.90;;;;;;5089230;28;20247;-77
2022/07/14 01:24:36;;;;;;;1.80;1.70;;;23.70;99.90;;;;;;5081890;28;20248;-77
2022/07/14 01:27:03;;;;;;;1.70;1.60;;;23.70;99.90;;;;;;5095664;28;20217;-77
2022/07/14 01:29:30;;;;;;;1.98;1.88;;;23.70;99.90;;;;;;5092852;28;20575;-77
2022/07/14 01:31:57;;;;;;;2.28;1.88;;;23.70;99.90;;;;;;5098456;28;20201;-78
2022/07/14 01:34:24;;;;;;;1.55;1.45;;;23.60;99.90;;;;;;5096112;28;20200;-79
2022/07/14 01:36:52;;;;;;;1.90;1.50;;;23.60;99.90;;;;;;5087155;28;20199;-78
2022/07/14 01:39:21;;;;;;;1.60;1.50;;;23.60;99.90;;;;;;5095488;28;20833;-78
2022/07/14 01:41:49;;;;;;;1.60;1.50;;;23.60;99.90;;;;;;5098934;28;20233;-77
2022/07/14 01:44:16;;;;;;;1.70;1.60;;;23.60;99.90;;;;;;5097802;28;20225;-77
2022/07/14 01:46:43;;;;;;;1.60;1.50;;;23.60;99.90;;;;;;5092055;28;20754;-77
2022/07/14 01:49:10;;;;;;;1.75;1.65;;;23.50;99.90;;;;;;5094656;28;20190;-78
2022/07/14 01:51:37;;;;;;;1.45;1.40;;;23.40;99.90;;;;;;5095914;28;20206;-76
2022/07/14 01:54:06;;;;;;;1.85;1.75;;;23.40;99.90;;;;;;5103925;28;20201;-78
2022/07/14 01:56:40;;;;;;;1.50;1.40;;;23.40;99.90;;;;;;5111958;28;20182;-79
2022/07/14 01:59:07;;;;;;;3.60;1.90;;;23.40;99.90;;;;;;5111917;28;20213;-78
2022/07/14 02:01:40;;;;;;;1.70;1.60;;;23.40;99.90;;;;;;5111382;28;20281;-77
2022/07/14 02:04:09;;;;;;;2.00;1.90;;;23.30;99.90;;;;;;5108897;28;20249;-78
2022/07/14 02:06:37;;;;;;;1.60;1.50;;;23.30;99.90;;;;;;5112843;28;20177;-77
2022/07/14 02:09:05;;;;;;;1.83;1.73;;;23.30;99.90;;;;;;5110986;28;20225;-80
2022/07/14 02:14:18;;;;;;;4.10;1.90;;;23.30;99.90;;;;;;5110727;28;20269;-78
2022/07/14 02:16:45;;;;;;;1.98;1.88;;;23.30;99.90;;;;;;5113503;28;20198;-78
2022/07/14 02:19:13;;;;;;;1.85;1.75;;;23.30;99.90;;;;;;5114713;28;20200;-77
2022/07/14 02:21:40;;;;;;;2.05;1.80;;;23.30;99.90;;;;;;5116383;28;20226;-79
2022/07/14 02:24:07;;;;;;;1.90;1.73;;;23.20;99.90;;;;;;5116133;28;20247;-77
2022/07/14 02:26:36;;;;;;;2.10;2.00;;;23.20;99.90;;;;;;5110127;28;20191;-77
2022/07/14 02:29:04;;;;;;;2.05;1.95;;;23.20;99.90;;;;;;5113700;28;20209;-77
2022/07/14 02:31:32;;;;;;;2.15;1.73;;;23.30;99.90;;;;;;5114360;28;20181;-78
2022/07/14 02:34:00;;;;;;;1.95;1.77;;;23.20;99.90;;;;;;5117784;28;20227;-79
2022/07/14 02:36:27;;;;;;;1.80;1.70;;;23.20;99.90;;;;;;5112300;28;20210;-78
2022/07/14 02:38:55;;;;;;;1.80;1.70;;;23.20;99.90;;;;;;5116539;28;20218;-78
2022/07/14 02:41:22;;;;;;;1.85;1.75;;;23.20;99.90;;;;;;5113205;28;20213;-79
2022/07/14 02:43:51;;;;;;;1.90;1.80;;;23.20;99.90;;;;;;5111503;28;20209;-79
2022/07/14 02:46:18;;;;;;;5.00;1.92;;;23.30;99.90;;;;;;5114716;28;20241;-79
2022/07/14 02:48:45;;;;;;;2.03;1.85;;;23.30;99.90;;;;;;5105863;28;20269;-79
2022/07/14 02:51:12;;;;;;;1.70;1.60;;;23.30;99.90;;;;;;5118431;28;20204;-77
2022/07/14 02:53:39;;;;;;;1.85;1.75;;;23.30;99.90;;;;;;5126050;22;20229;-78
2022/07/14 02:56:07;;;;;;;2.03;1.80;;;23.30;99.90;;;;;;5108880;28;20193;-79
2022/07/14 02:58:36;;;;;;;2.03;1.90;;;23.40;99.90;;;;;;5107352;27;20220;-77
2022/07/14 03:01:06;;;;;;;1.80;1.70;;;23.40;99.90;;;;;;5123491;28;20220;-79
2022/07/14 03:03:34;;;;;;;1.65;1.55;;;23.40;99.90;;;;;;5112094;28;20220;-78
2022/07/14 03:06:07;;;;;;;2.17;2.05;;;23.40;99.90;;;;;;5111596;28;20276;-79
2022/07/14 03:08:34;;;;;;;1.80;1.63;;;23.40;99.90;;;;;;5111302;28;20216;-79
2022/07/14 03:11:01;;;;;;;1.83;1.63;;;23.40;99.90;;;;;;5109670;28;20650;-79
2022/07/14 03:13:28;;;;;;;1.77;1.67;;;23.40;99.90;;;;;;5109726;27;20216;-79
2022/07/14 03:15:55;;;;;;;1.77;1.67;;;23.40;99.90;;;;;;5103327;28;20200;-79
2022/07/14 03:18:24;;;;;;;1.77;1.60;;;23.40;99.90;;;;;;5110910;28;20215;-78
2022/07/14 03:20:51;;;;;;;1.70;1.60;;;23.40;99.90;;;;;;5102558;28;20303;-78
2022/07/14 03:23:18;;;;;;;1.70;1.60;;;23.40;99.90;;;;;;5108608;27;20226;-79
2022/07/14 03:25:46;;;;;;;1.80;1.70;;;23.40;99.90;;;;;;5111902;28;20214;-79
2022/07/14 03:28:14;;;;;;;1.83;1.73;;;23.40;99.90;;;;;;5110738;28;20221;-80
2022/07/14 03:30:42;;;;;;;1.83;1.73;;;23.40;99.90;;;;;;5108360;28;20200;-79
2022/07/14 03:33:09;;;;;;;1.75;1.45;;;23.40;99.90;;;;;;5110222;27;20307;-79
2022/07/14 03:35:39;;;;;;;1.80;1.70;;;23.40;99.90;;;;;;5110842;27;20197;-79
2022/07/14 03:38:07;;;;;;;2.03;1.90;;;23.40;99.90;;;;;;5108923;27;20216;-78
2022/07/14 03:40:34;;;;;;;1.90;1.80;;;23.40;99.90;;;;;;5107258;28;20213;-78
2022/07/14 03:43:02;;;;;;;1.88;1.77;;;23.40;99.90;;;;;;5111716;28;20698;-79
2022/07/14 03:45:29;;;;;;;1.60;1.50;;;23.40;99.90;;;;;;5109194;28;20220;-79
2022/07/14 03:47:57;;;;;;;1.80;1.70;;;23.40;99.90;;;;;;5109354;28;20217;-79
2022/07/14 03:50:24;;;;;;;1.73;1.63;;;23.40;99.90;;;;;;5111851;28;20197;-78
2022/07/14 03:52:52;;;;;;;2.15;2.05;;;23.40;99.90;;;;;;5121569;27;20224;-80
2022/07/14 03:55:19;;;;;;;2.40;1.98;;;23.40;99.90;;;;;;5130445;27;20200;-79
2022/07/14 03:57:47;;;;;;;1.80;1.70;;;23.40;99.90;;;;;;5130966;27;20860;-78
2022/07/14 04:00:15;;;;;;;1.75;1.65;;;23.40;99.90;;;;;;5128146;27;20208;-79
2022/07/14 04:02:42;;;;;;;2.05;1.92;;;23.40;99.90;;;;;;5132590;27;20230;-79
2022/07/14 04:05:10;;;;;;;2.03;1.70;;;23.30;99.90;;;;;;5127291;27;20192;-77
2022/07/14 04:07:37;;;;;;;1.92;1.80;;;23.40;99.90;;;;;;5126053;27;20217;-78
2022/07/14 04:10:06;;;;;;;1.70;1.60;;;23.40;99.90;;;;;;5130105;27;20196;-79
2022/07/14 04:12:33;;;;;;;1.55;1.50;;;23.40;99.90;;;;;;5126989;27;20213;-79
2022/07/14 04:15:01;;;;;;;1.92;1.70;;;23.40;99.90;;;;;;5125789;27;20192;-79
2022/07/14 04:17:28;;;;;;;1.80;1.70;;;23.40;99.90;;;;;;5124469;27;20212;-79
2022/07/14 04:19:55;;;;;;;2.13;1.70;;;23.40;99.90;;;;;;5123512;27;20196;-79
2022/07/14 04:22:22;;;;;;;1.58;1.45;;;23.40;99.90;;;;;;5125548;27;20221;-78
2022/07/14 04:24:49;;;;;;;2.53;1.90;;;23.50;99.90;;;;;;5131271;27;20196;-78
2022/07/14 04:27:17;;;;;;;1.60;1.50;;;23.50;99.90;;;;;;5128999;27;20208;-79
2022/07/14 04:29:44;;;;;;;1.70;1.60;;;23.50;99.90;;;;;;5131302;27;20248;-80
2022/07/14 04:32:12;;;;;;;1.52;1.42;;;23.50;99.90;;;;;;5130316;27;20219;-79
2022/07/14 04:34:39;;;;;;;1.50;1.40;;;23.50;99.90;;;;;;5127207;27;20239;-79
2022/07/14 04:37:07;;;;;;;1.70;1.60;;;23.50;99.90;;;;;;5126771;27;20223;-79
2022/07/14 04:39:34;;;;;;;1.70;1.60;;;23.50;99.90;;;;;;5126146;27;20203;-78
2022/07/14 04:42:01;;;;;;;1.65;1.55;;;23.50;99.90;;;;;;5133812;27;20220;-80
2022/07/14 04:44:30;;;;;;;1.75;1.30;;;23.50;99.90;;;;;;5124967;27;20216;-79
2022/07/14 04:46:57;;;;;;;1.60;1.50;;;23.60;99.90;;;;;;5126222;27;20200;-78
2022/07/14 04:52:09;;;;;;;1.80;1.70;;;23.60;99.90;;;;;;5125341;27;20311;-78
2022/07/14 04:54:36;;;;;;;2.28;2.17;;;23.60;99.90;;;;;;5129568;27;20224;-78
2022/07/14 04:57:05;;;;;;;1.83;1.73;;;23.60;99.90;;;;;;5129953;27;20723;-79
2022/07/14 04:59:33;;;;;;;1.95;1.85;;;23.60;99.90;;;;;;5129348;27;20200;-79
2022/07/14 05:02:01;;;;;;;1.70;1.60;;;23.60;99.90;;;;;;5123693;27;20704;-78
2022/07/14 05:04:29;;;;;;;1.83;1.73;;;23.60;99.90;;;;;;5140043;27;20261;-79
2022/07/14 05:06:57;;;;;;;1.85;1.75;;;23.50;99.90;;;;;;5127271;28;20237;-79
2022/07/14 05:09:25;;;;;;;1.95;1.83;;;23.50;99.90;;;;;;5125512;28;20192;-79
2022/07/14 05:11:53;;;;;;;1.63;1.52;;;23.50;99.90;;;;;;5129703;28;20189;-79
2022/07/14 05:14:21;;;;;;;1.95;1.75;;;23.50;99.90;;;;;;5130400;28;20280;-78
2022/07/14 05:16:49;;;;;;;1.77;1.67;;;23.50;99.90;;;;;;5132085;28;20199;-79
2022/07/14 05:19:17;;;;;;;2.08;1.98;;;23.60;99.90;;;;;;5130602;28;20249;-78
2022/07/14 05:21:44;;;;;;;1.60;1.50;;;23.60;99.90;;;;;;5124651;27;20281;-79
2022/07/14 05:24:12;;;;;;;1.80;1.70;;;23.60;99.90;;;;;;5130561;28;20218;-78
2022/07/14 05:26:39;;;;;;;1.73;1.63;;;23.60;99.90;;;;;;5129151;28;20248;-80
2022/07/14 05:29:07;;;;;;;1.83;1.73;;;23.70;99.90;;;;;;5128300;28;20212;-79
2022/07/14 05:31:34;;;;;;;1.80;1.70;;;23.70;99.90;;;;;;5118110;28;20561;-78
2022/07/14 05:34:02;;;;;;;1.77;1.67;;;23.70;99.90;;;;;;5139065;28;20235;-80
2022/07/14 05:36:29;;;;;;;2.05;1.95;;;23.80;99.90;;;;;;5127473;28;20196;-80
2022/07/14 05:38:56;;;;;;;2.00;1.90;;;23.70;99.90;;;;;;5127528;28;20216;-79
2022/07/14 05:41:23;;;;;;;1.90;1.80;;;23.80;99.90;;;;;;5132326;28;20223;-79
2022/07/14 05:43:51;;;;;;;2.00;1.90;;;23.80;99.90;;;;;;5126406;27;20227;-80
2022/07/14 05:46:18;;;;;;;2.00;1.90;;;23.80;99.90;;;;;;5136204;27;20203;-78
2022/07/14 05:48:45;;;;;;;2.33;2.17;;;23.90;99.90;;;;;;5123959;27;20291;-78
2022/07/14 05:51:15;;;;;;;2.22;2.13;;;23.80;99.90;;;;;;5122693;27;20219;-78
2022/07/14 05:53:43;;;;;;;2.42;2.22;;;23.70;99.90;;;;;;5122967;27;20293;-77
2022/07/14 05:56:11;;;;;;;1.90;1.80;;;23.60;99.90;;;;;;5123205;27;20188;-76
2022/07/14 05:58:39;;;;;;;1.85;1.70;;;23.70;99.90;;;;;;5125089;27;20682;-76
2022/07/14 06:01:08;;;;;;;2.20;2.00;;;23.70;99.90;;;;;;5129896;27;20201;-76
2022/07/14 06:03:35;;;;;;;2.33;2.13;;;23.80;99.90;;;;;;5128685;27;20263;-77
2022/07/14 06:06:05;;;;;;;2.08;1.98;;;23.90;99.90;;;;;;5120426;27;20200;-78
2022/07/14 06:08:34;;;;;;;1.80;1.70;;;23.90;99.90;;;;;;5126960;27;20209;-78
2022/07/14 06:11:02;;;;;;;2.60;1.90;;;23.90;99.90;;;;;;5128621;27;20654;-79
2022/07/14 06:13:31;;;;;;;2.30;2.10;;;23.90;99.90;;;;;;5126816;27;20224;-79
2022/07/14 06:15:59;;;;;;;2.25;2.15;;;23.80;99.90;;;;;;5124945;27;20196;-78
2022/07/14 06:18:26;;;;;;;2.03;1.92;;;23.80;99.90;;;;;;5131831;27;20219;-78
2022/07/14 06:20:54;;;;;;;1.98;1.88;;;23.80;99.90;;;;;;5129900;27;20196;-78
2022/07/14 06:23:21;;;;;;;2.33;2.10;;;23.90;99.90;;;;;;5127909;27;20224;-78
2022/07/14 06:25:50;;;;;;;2.03;1.92;;;24.00;99.90;;;;;;5137516;27;20197;-78
2022/07/14 06:28:17;;;;;;;2.75;2.35;;;24.10;99.90;;;;;;5131580;27;20713;-79
2022/07/14 06:30:44;;;;;;;2.50;2.15;;;24.10;99.90;;;;;;5128522;27;20673;-78
2022/07/14 06:33:12;;;;;;;2.47;2.30;;;24.10;99.90;;;;;;5128938;27;20213;-79
2022/07/14 06:35:40;;;;;;;2.58;2.38;;;24.00;99.90;;;;;;5131877;27;20226;-78
2022/07/14 06:38:07;;;;;;;2.20;2.00;;;23.90;99.90;;;;;;5132172;27;20220;-79
2022/07/14 06:40:34;;;;;;;2.42;2.22;;;23.80;99.90;;;;;;5123824;27;20322;-78
2022/07/14 06:43:03;;;;;;;2.80;2.60;;;23.80;99.90;;;;;;5126330;27;20212;-77
2022/07/14 06:45:30;;;;;;;2.40;2.13;;;24.00;99.90;;;;;;5129658;27;20202;-78
2022/07/14 06:47:57;;;;;;;2.45;2.25;;;24.00;99.90;;;;;;5128419;27;20208;-78
2022/07/14 06:50:24;;;;;;;2.55;2.35;;;23.90;99.90;;;;;;5120471;27;20212;-79
2022/07/14 06:52:52;;;;;;;3.05;2.78;;;23.80;99.90;;;;;;5117111;27;20238;-76
2022/07/14 06:55:19;;;;;;;3.25;2.42;;;23.70;99.90;;;;;;5123211;27;20188;-77
2022/07/14 06:57:46;;;;;;;2.65;2.45;;;23.70;99.90;;;;;;5119268;27;20714;-77
2022/07/14 07:00:16;;;;;;;3.00;2.70;;;23.80;99.90;;;;;;5119065;27;20200;-78
2022/07/14 07:02:43;;;;;;;3.58;2.72;;;24.20;99.90;;;;;;5118112;27;20222;-77
2022/07/14 07:07:58;;;;;;;2.88;2.60;;;24.80;99.90;;;;;;5122620;27;20307;-77
2022/07/14 07:10:26;;;;;;;2.45;2.35;;;25.00;99.90;;;;;;5120294;27;20200;-76
2022/07/14 07:12:53;;;;;;;2.65;2.45;;;25.10;99.90;;;;;;5112496;27;20225;-75
2022/07/14 07:15:22;;;;;;;3.00;2.72;;;25.20;99.90;;;;;;5124965;27;20200;-75
2022/07/14 07:17:49;;;;;;;3.22;2.85;;;25.40;99.90;;;;;;5125526;27;20331;-77
2022/07/14 07:20:16;;;;;;;3.85;2.85;;;25.40;99.90;;;;;;5120927;27;20245;-77
2022/07/14 07:22:43;;;;;;;4.45;3.00;;;25.40;99.90;;;;;;5118956;27;20600;-76
2022/07/14 07:25:13;;;;;;;2.72;2.53;;;25.30;99.90;;;;;;5118789;27;20185;-77
2022/07/14 07:27:40;;;;;;;2.80;2.60;;;25.30;99.90;;;;;;5120894;27;20277;-77
2022/07/14 07:30:09;;;;;;;5.78;2.63;;;25.40;99.90;;;;;;5119344;27;20664;-77
2022/07/14 07:32:38;;;;;;;2.42;2.22;;;25.60;99.90;;;;;;5118768;27;20265;-77
2022/07/14 07:35:06;;;;;;;3.50;2.47;;;25.90;99.90;;;;;;5117509;27;20199;-77
2022/07/14 07:37:33;;;;;;;3.90;2.33;;;26.10;99.90;;;;;;5122892;27;20264;-79
2022/07/14 07:40:01;;;;;;;2.53;2.33;;;26.30;99.90;;;;;;5118233;27;20203;-76
2022/07/14 07:42:28;;;;;;;2.50;2.30;;;26.50;99.90;;;;;;5119552;27;20714;-78
2022/07/14 07:44:55;;;;;;;2.40;2.20;;;26.60;99.90;;;;;;5116188;27;20287;-75
2022/07/14 07:47:23;;;;;;;2.70;2.50;;;26.60;99.90;;;;;;5121183;27;20628;-76
2022/07/14 07:49:52;;;;;;;3.00;2.75;;;26.60;99.90;;;;;;5113130;27;20280;-75
2022/07/14 07:52:20;;;;;;;3.17;2.80;;;26.40;99.90;;;;;;5124772;27;20287;-77
2022/07/14 07:54:47;;;;;;;3.00;2.55;;;26.40;99.90;;;;;;5118730;27;20208;-79
2022/07/14 07:57:15;;;;;;;3.25;2.80;;;26.40;99.90;;;;;;5123543;27;20228;-78
2022/07/14 07:59:42;;;;;;;3.72;2.70;;;26.40;99.90;;;;;;5121725;27;20188;-76
2022/07/14 08:02:09;;;;;;;3.20;2.90;;;26.20;99.90;;;;;;5124206;27;20228;-79
2022/07/14 08:04:36;;;;;;;3.95;3.17;;;26.00;99.90;;;;;;5131256;27;20216;-79
2022/07/14 08:07:05;;;;;;;5.47;2.80;;;25.70;99.90;;;;;;5123933;27;20581;-79
2022/07/14 08:09:32;;;;;;;4.78;3.20;;;25.50;99.90;;;;;;5121152;27;20658;-76
2022/07/14 08:11:59;;;;;;;4.53;3.20;;;25.50;99.90;;;;;;5120988;27;20189;-77
2022/07/14 08:17:11;;;;;;;3.10;2.80;;;25.60;99.90;;;;;;5113734;27;20592;-76
2022/07/14 08:19:38;;;;;;;2.97;2.78;;;25.80;99.90;;;;;;5126141;27;20199;-77
2022/07/14 08:22:06;;;;;;;4.78;3.05;;;26.20;99.90;;;;;;5120211;27;20272;-77
2022/07/14 08:24:34;;;;;;;3.65;3.03;;;26.50;99.90;;;;;;5130204;27;20587;-74
2022/07/14 08:27:01;;;;;;;3.72;3.35;;;27.00;99.90;;;;;;5124890;27;20217;-75
2022/07/14 08:29:28;;;;;;;4.68;3.33;;;27.20;99.90;;;;;;5119066;27;20557;-76
2022/07/14 08:31:55;;;;;;;4.07;3.42;;;27.30;99.90;;;;;;5130821;27;20195;-79
2022/07/14 08:34:22;;;;;;;5.15;3.58;;;27.30;99.90;;;;;;5123838;27;20208;-80
2022/07/14 08:36:50;;;;;;;4.72;3.63;;;27.20;99.90;;;;;;5122183;27;20197;-77
2022/07/14 08:39:19;;;;;;;3.60;3.30;;;27.20;99.90;;;;;;5118969;27;20193;-81
2022/07/14 08:41:47;;;;;;;5.10;3.33;;;27.10;99.90;;;;;;5119748;27;20234;-76
2022/07/14 08:44:14;;;;;;;3.42;3.13;;;27.30;99.90;;;;;;5122367;27;20220;-80
2022/07/14 08:46:42;;;;;;;4.50;3.35;;;27.40;99.90;;;;;;5120816;27;20196;-78
2022/07/14 08:49:09;;;;;;;3.45;3.15;;;27.50;99.90;;;;;;5116751;27;20215;-78
2022/07/14 08:51:40;;;;;;;4.13;3.30;;;27.60;99.90;;;;;;5117081;27;20212;-76
2022/07/14 08:54:10;;;;;;;3.60;3.30;;;27.70;99.90;;;;;;5112850;27;20361;-76
2022/07/14 08:56:39;;;;;;;3.40;3.10;;;27.80;99.90;;;;;;5120540;27;20909;-76
2022/07/14 09:01:34;;;;;;;3.97;3.47;;;28.10;99.90;;;;;;5015960;28;20270;-75
2022/07/14 09:04:02;;;;;;;3.63;3.22;;;28.10;99.90;;;;;;5022807;28;20689;-74
2022/07/14 09:06:52;;;;;;;8.45;3.40;;;28.30;99.90;;;;;;5027246;28;20204;-76
2022/07/14 09:09:21;;;;;;;3.60;3.30;;;28.40;99.90;;;;;;5021828;28;20229;-75
2022/07/14 09:12:04;;;;;;;3.45;3.00;;;28.50;99.90;;;;;;5012743;28;20606;-75
2022/07/14 09:15:44;;;;;;;3.08;2.78;;;28.80;99.90;;;;;;5012533;28;20277;-74
2022/07/14 09:17:25;;;;;;;2.70;2.50;;;29.00;99.90;;;;;;5002862;28;20351;-75
2022/07/14 09:20:10;;;;;;;3.25;2.85;;;29.30;99.90;;;;;;5019852;28;20224;-76
2022/07/14 09:22:38;;;;;;;3.25;2.97;;;29.40;99.90;;;;;;5010232;28;20518;-76
2022/07/14 09:25:08;;;;;;;4.00;3.08;;;29.30;99.90;;;;;;5016736;28;20204;-75
2022/07/14 09:27:38;;;;;;;3.10;2.90;;;29.10;99.90;;;;;;5020146;28;20227;-75
2022/07/14 09:30:06;;;;;;;3.63;3.05;;;28.90;99.90;;;;;;5021145;28;20215;-75
2022/07/14 09:32:50;;;;;;;3.63;3.30;;;28.60;99.90;;;;;;5017947;28;20592;-76
2022/07/14 09:35:19;;;;;;;2.72;2.53;;;28.80;99.90;;;;;;5010821;28;20661;-76
2022/07/14 09:37:47;;;;;;;2.63;2.42;;;29.00;99.90;;;;;;5011012;28;20230;-77
2022/07/14 09:40:21;;;;;;;2.88;2.58;;;29.20;99.90;;;;;;5014523;28;20583;-75
2022/07/14 09:42:56;;;;;;;2.97;2.65;;;29.40;99.90;;;;;;5012239;28;20248;-77
2022/07/14 09:45:26;;;;;;;3.60;3.30;;;29.30;99.90;;;;;;5008370;28;20207;-77
2022/07/14 09:48:06;;;;;;;3.35;3.05;;;29.10;99.90;;;;;;5010597;28;20218;-74
2022/07/14 09:50:35;;;;;;;2.90;2.67;;;28.90;99.90;;;;;;5006694;28;20229;-76
2022/07/14 09:53:28;;;;;;;5.40;2.72;;;28.70;99.90;;;;;;5016719;28;20209;-76
2022/07/14 09:55:57;;;;;;;3.83;2.50;;;28.70;99.90;;;;;;5012644;28;20210;-74
2022/07/14 09:58:28;;;;;;;4.65;2.90;;;28.70;99.90;;;;;;5017878;28;20930;-75
2022/07/14 10:00:58;;;;;;;3.28;2.75;;;28.80;99.90;;;;;;5027494;28;20242;-75
2022/07/14 10:03:27;;;;;;;4.80;3.53;;;29.00;99.90;;;;;;5028671;28;20227;-76
2022/07/14 10:05:55;;;;;;;3.10;2.88;;;29.00;99.90;;;;;;5033950;28;20196;-76
2022/07/14 10:08:25;;;;;;;4.35;2.80;;;29.00;99.90;;;;;;5032828;28;20220;-75
2022/07/14 10:10:54;;;;;;;2.80;2.60;;;29.20;99.90;;;;;;5032451;28;20265;-75
2022/07/14 10:13:22;;;;;;;2.97;2.50;;;29.10;99.90;;;;;;5033072;28;20242;-76
2022/07/14 10:15:52;;;;;;;2.55;2.35;;;29.20;99.90;;;;;;5031318;28;20206;-76
2022/07/14 10:18:21;;;;;;;2.45;2.25;;;29.40;99.90;;;;;;5029145;28;20219;-74
2022/07/14 10:20:50;;;;;;;3.20;2.65;;;29.70;99.90;;;;;;5029048;28;20617;-76
2022/07/14 10:23:19;;;;;;;2.75;2.55;;;30.10;99.90;;;;;;5033084;28;20226;-76
2022/07/14 10:25:47;;;;;;;2.55;2.35;;;30.40;99.90;;;;;;5027256;28;20501;-76
2022/07/14 10:28:16;;;;;;;2.72;2.50;;;30.60;99.90;;;;;;5022639;28;20310;-76
2022/07/14 10:30:53;;;;;;;3.15;2.85;;;30.50;99.90;;;;;;5021380;28;20292;-75
2022/07/14 10:33:34;;;;;;;4.05;2.83;;;30.40;99.90;;;;;;5029081;28;20223;-75
2022/07/14 10:36:14;;;;;;;2.70;2.50;;;30.30;99.90;;;;;;5026316;28;20214;-76
2022/07/14 10:39:03;;;;;;;2.50;2.30;;;30.40;99.90;;;;;;5024281;28;20219;-75
2022/07/14 10:41:51;;;;;;;3.20;2.78;;;30.70;99.90;;;;;;5030751;28;20586;-76
2022/07/14 10:44:22;;;;;;;2.90;2.65;;;30.60;99.90;;;;;;5047312;28;20474;-76
2022/07/14 10:46:51;;;;;;;3.75;2.78;;;30.30;99.90;;;;;;5048309;28;20200;-76
2022/07/14 10:49:20;;;;;;;3.08;2.70;;;30.20;99.90;;;;;;5042469;28;20276;-75
2022/07/14 10:51:49;;;;;;;2.70;2.50;;;30.00;99.90;;;;;;5047984;28;20592;-76
2022/07/14 10:54:23;;;;;;;3.30;2.85;;;29.80;99.90;;;;;;5057637;28;20387;-76
2022/07/14 10:56:50;;;;;;;4.72;2.85;;;29.70;99.90;;;;;;5048259;28;20218;-75
2022/07/14 10:59:33;;;;;;;3.00;2.70;;;29.80;99.90;;;;;;5048677;28;20186;-75
2022/07/14 11:02:33;;;;;;;3.40;2.90;;;30.00;99.90;;;;;;5051522;28;20202;-76
2022/07/14 11:05:08;;;;;;;3.30;3.00;;;30.40;99.90;;;;;;5046964;28;20191;-75
2022/07/14 11:07:40;;;;;;;3.55;2.83;;;30.30;99.90;;;;;;5056480;28;20294;-75
2022/07/14 11:11:09;;;;;;;2.75;2.55;;;30.00;99.90;;;;;;5040108;28;20223;-76
2022/07/14 11:14:06;;;;;;;5.47;2.53;;;29.50;99.90;;;;;;5041550;28;20218;-75
2022/07/14 11:16:56;;;;;;;4.05;2.65;;;29.60;99.90;;;;;;5048384;28;20214;-77
2022/07/14 11:19:26;;;;;;;2.90;2.70;;;29.90;99.90;;;;;;5044591;28;20232;-76
2022/07/14 11:22:13;;;;;;;2.90;2.70;;;30.20;99.90;;;;;;5051494;28;20191;-76
2022/07/14 11:24:48;;;;;;;2.95;2.75;;;30.20;99.90;;;;;;5050935;28;20229;-74
2022/07/14 11:27:40;;;;;;;3.30;3.00;;;30.20;99.90;;;;;;5054482;28;20222;-76
2022/07/14 11:30:32;;;;;;;2.55;2.40;;;30.70;99.90;;;;;;5048745;28;20222;-76
2022/07/14 11:33:08;;;;;;;2.75;2.55;;;30.90;99.90;;;;;;5024692;28;20215;-77
2022/07/14 11:38:37;;;;;;;2.58;2.38;;;30.60;99.90;;;;;;5041862;28;20217;-76
2022/07/14 11:41:10;;;;;;;3.05;2.50;;;30.90;99.90;;;;;;5048766;28;20700;-77
2022/07/14 11:43:51;;;;;;;3.38;2.83;;;31.30;99.90;;;;;;5046815;28;20246;-76
2022/07/14 11:46:21;;;;;;;3.20;2.90;;;31.60;99.90;;;;;;5041805;28;20207;-75
2022/07/14 11:48:51;;;;;;;4.13;2.53;;;31.70;99.90;;;;;;5050258;28;20227;-75
2022/07/14 11:51:24;;;;;;;2.58;2.38;;;32.00;99.90;;;;;;5045991;28;20280;-76
2022/07/14 11:53:56;;;;;;;2.75;2.47;;;32.30;99.90;;;;;;5051894;28;20211;-76
2022/07/14 11:56:25;;;;;;;2.78;2.58;;;32.30;99.90;;;;;;5050292;28;20195;-75
2022/07/14 11:58:53;;;;;;;3.05;2.63;;;32.50;99.90;;;;;;5045712;28;21292;-76
2022/07/14 12:01:22;;;;;;;3.42;2.63;;;32.50;99.90;;;;;;5047273;28;20233;-76
2022/07/14 12:03:50;;;;;;;4.30;2.55;;;32.30;99.90;;;;;;5042760;28;20218;-76
2022/07/14 12:06:17;;;;;;;2.97;2.67;;;32.20;99.90;;;;;;5048959;28;20625;-75
2022/07/14 12:08:45;;;;;;;2.45;2.35;;;32.10;99.90;;;;;;5042970;28;20226;-74
2022/07/14 12:11:14;;;;;;;2.75;2.55;;;31.90;99.90;;;;;;5046080;28;20229;-76
2022/07/14 12:13:50;;;;;;;2.85;2.65;;;31.80;99.90;;;;;;5045011;28;20211;-77
2022/07/14 12:16:18;;;;;;;3.72;2.70;;;31.70;99.90;;;;;;5044323;28;20217;-77
2022/07/14 12:18:46;;;;;;;2.97;2.53;;;31.80;99.90;;;;;;5048657;28;20761;-76
2022/07/14 12:21:15;;;;;;;2.58;2.40;;;31.70;99.90;;;;;;5044386;28;20646;-76
2022/07/14 12:23:55;;;;;;;3.00;2.80;;;31.70;99.90;;;;;;5049737;28;20215;-76
2022/07/14 12:26:24;;;;;;;2.63;2.42;;;31.50;99.90;;;;;;5029286;28;20202;-77
2022/07/14 12:28:52;;;;;;;3.30;2.80;;;31.50;99.90;;;;;;5035304;28;20527;-75
2022/07/14 12:31:19;;;;;;;2.90;2.70;;;31.30;99.90;;;;;;5033531;28;20704;-77
2022/07/14 12:33:48;;;;;;;2.83;2.63;;;31.10;99.90;;;;;;5040144;28;20211;-75
2022/07/14 12:36:19;;;;;;;3.10;2.90;;;31.10;99.90;;;;;;5035158;28;20198;-75
2022/07/14 12:38:47;;;;;;;5.03;3.10;;;31.00;99.90;;;;;;5037064;28;20214;-75
2022/07/14 12:41:17;;;;;;;3.28;2.65;;;30.70;99.90;;;;;;5040878;28;20210;-74
2022/07/14 12:43:45;;;;;;;2.97;2.70;;;30.40;99.90;;;;;;5039446;28;20252;-75
2022/07/14 12:46:15;;;;;;;3.97;2.60;;;30.20;99.90;;;;;;5037751;28;20211;-75
2022/07/14 12:49:03;;;;;;;2.53;2.33;;;29.90;99.90;;;;;;5042684;28;20251;-75
2022/07/14 12:51:36;;;;;;;2.45;2.35;;;29.80;99.90;;;;;;5039765;28;20281;-76
2022/07/14 12:54:10;;;;;;;2.97;2.78;;;29.80;99.90;;;;;;5036662;28;20237;-75
2022/07/14 12:56:48;;;;;;;2.75;2.55;;;29.90;99.90;;;;;;5035280;28;20753;-76
2022/07/14 12:59:17;;;;;;;4.07;3.35;;;30.10;99.90;;;;;;5038219;28;20216;-75
2022/07/14 13:01:50;;;;;;;2.97;2.47;;;30.60;99.90;;;;;;5037868;28;20214;-74
2022/07/14 13:04:34;;;;;;;3.38;2.85;;;30.90;99.90;;;;;;5035257;28;20434;-76
2022/07/14 13:07:03;;;;;;;4.22;2.97;;;30.90;99.90;;;;;;5037058;28;20195;-75
2022/07/14 13:09:30;;;;;;;3.65;2.55;;;31.00;99.90;;;;;;5037317;28;20214;-75
2022/07/14 13:11:57;;;;;;;5.28;2.88;;;31.20;99.90;;;;;;5043793;28;20657;-76
2022/07/14 13:14:25;;;;;;;3.17;2.85;;;31.30;99.90;;;;;;5039148;28;20195;-75
2022/07/14 13:16:52;;;;;;;3.20;2.88;;;31.40;99.90;;;;;;5036253;28;20260;-75